createdAt,value
2023-01-28T00:01:52.381Z,83.59
2023-01-28T00:06:03.089Z,83.37
2023-01-28T00:10:08.116Z,83.70
2023-01-28T00:14:12.233Z,83.58
2023-01-28T00:18:14.866Z,83.94
2023-01-28T00:22:17.548Z,83.79
2023-01-28T00:26:22.835Z,83.50
2023-01-28T00:30:25.458Z,84.00
2023-01-28T00:34:28.077Z,83.81
2023-01-28T00:38:30.693Z,84.04
2023-01-28T00:42:34.739Z,84.15
2023-01-28T00:46:37.310Z,83.91
2023-01-28T00:50:40.357Z,83.97
2023-01-28T00:54:42.953Z,84.09
2023-01-28T00:58:47.004Z,84.04
2023-01-28T01:02:49.674Z,84.57
2023-01-28T01:06:52.299Z,83.99
2023-01-28T01:10:59.708Z,84.22
2023-01-28T01:15:03.819Z,84.61
2023-01-28T01:19:09.422Z,84.68
2023-01-28T01:23:12.807Z,84.75
2023-01-28T01:27:15.518Z,84.61
2023-01-28T01:31:21.261Z,84.74
2023-01-28T01:35:23.879Z,84.56
2023-01-28T01:39:26.656Z,84.98
2023-01-28T01:43:48.697Z,84.78
2023-01-28T01:48:00.340Z,84.86
2023-01-28T01:52:08.603Z,84.82
2023-01-28T01:56:15.152Z,85.04
2023-01-28T02:00:18.564Z,84.49
2023-01-28T02:04:27.387Z,85.07
2023-01-28T02:08:30.064Z,84.93
2023-01-28T02:12:36.788Z,85.14
2023-01-28T02:16:39.558Z,85.20
2023-01-28T02:21:01.116Z,84.69
2023-01-28T02:25:32.400Z,84.95
2023-01-28T02:29:45.109Z,84.67
2023-01-28T02:33:56.096Z,85.19
2023-01-28T02:38:05.105Z,85.05
2023-01-28T02:42:13.481Z,85.06
2023-01-28T02:46:41.200Z,85.20
2023-01-28T02:50:50.355Z,84.86
2023-01-28T02:54:59.206Z,84.90
2023-01-28T02:59:23.061Z,84.74
2023-01-28T03:03:34.338Z,85.21
2023-01-28T03:07:40.079Z,85.04
2023-01-28T03:12:03.771Z,84.82
2023-01-28T03:16:24.000Z,84.88
2023-01-28T03:20:52.982Z,85.14
2023-01-28T03:25:13.727Z,85.21
2023-01-28T03:29:35.751Z,85.49
2023-01-28T03:33:56.398Z,85.89
2023-01-28T03:38:00.737Z,86.14
2023-01-28T03:42:05.878Z,86.39
2023-01-28T03:46:08.532Z,85.94
2023-01-28T03:50:12.040Z,86.40
2023-01-28T03:54:16.004Z,86.67
2023-01-28T03:58:19.938Z,86.73
2023-01-28T04:02:25.275Z,87.03
2023-01-28T04:06:28.990Z,86.56
2023-01-28T04:10:32.911Z,86.59
2023-01-28T04:14:35.594Z,87.17
2023-01-28T04:18:38.260Z,86.72
2023-01-28T04:22:40.863Z,86.78
2023-01-28T04:26:44.829Z,86.91
2023-01-28T04:30:47.516Z,86.95
2023-01-28T04:34:50.158Z,86.67
2023-01-28T04:38:52.852Z,87.14
2023-01-28T04:42:57.692Z,86.90
2023-01-28T04:47:00.312Z,86.73
2023-01-28T04:51:03.320Z,87.26
2023-01-28T04:55:06.637Z,86.85
2023-01-28T04:59:10.737Z,87.54
2023-01-28T05:03:13.428Z,87.68
2023-01-28T05:07:16.083Z,87.42
2023-01-28T05:11:18.710Z,87.43
2023-01-28T05:15:22.748Z,87.97
2023-01-28T05:19:25.531Z,87.56
2023-01-28T05:23:28.156Z,88.11
2023-01-28T05:27:31.157Z,87.79
2023-01-28T05:31:35.453Z,87.44
2023-01-28T05:35:38.121Z,87.97
2023-01-28T05:39:40.720Z,87.83
2023-01-28T05:43:43.310Z,87.82
2023-01-28T05:47:47.243Z,87.35
2023-01-28T05:51:49.888Z,87.17
2023-01-28T05:55:54.430Z,87.51
2023-01-28T05:59:57.147Z,87.24
2023-01-28T06:04:01.123Z,87.03
2023-01-28T06:08:03.775Z,86.85
2023-01-28T06:12:07.087Z,86.75
2023-01-28T06:16:09.834Z,87.29
2023-01-28T06:20:14.271Z,87.30
2023-01-28T06:24:17.459Z,87.02
2023-01-28T06:28:20.091Z,86.71
2023-01-28T06:32:22.779Z,86.80
2023-01-28T06:36:27.613Z,86.79
2023-01-28T06:40:30.272Z,87.43
2023-01-28T06:44:32.895Z,87.11
2023-01-28T06:48:35.516Z,94.15
2023-01-28T06:52:39.486Z,95.01
2023-01-28T06:56:42.149Z,95.60
2023-01-28T07:00:44.785Z,95.50
2023-01-28T07:04:47.409Z,95.18
2023-01-28T07:08:51.360Z,94.43
2023-01-28T07:12:53.971Z,93.75
2023-01-28T07:16:56.605Z,91.02
2023-01-28T07:20:59.508Z,91.52
2023-01-28T07:25:03.455Z,88.65
2023-01-28T07:29:06.098Z,87.39
2023-01-28T07:33:08.730Z,88.10
2023-01-28T07:37:11.640Z,87.49
2023-01-28T07:41:15.630Z,87.63
2023-01-28T07:45:18.261Z,87.59
2023-01-28T07:49:21.119Z,87.71
2023-01-28T07:53:23.785Z,87.73
2023-01-28T07:57:30.203Z,90.12
2023-01-28T08:01:32.883Z,89.25
2023-01-28T08:05:41.630Z,87.37
2023-01-28T08:09:44.705Z,86.60
2023-01-28T08:13:49.887Z,86.46
2023-01-28T08:17:54.780Z,87.17
2023-01-28T08:21:57.387Z,86.75
2023-01-28T08:26:00.324Z,87.08
2023-01-28T08:30:04.743Z,86.48
2023-01-28T08:34:07.385Z,86.48
2023-01-28T08:38:11.529Z,86.47
2023-01-28T08:42:14.292Z,86.07
2023-01-28T08:46:18.388Z,85.69
2023-01-28T08:50:22.177Z,85.79
2023-01-28T08:54:24.796Z,85.76
2023-01-28T08:58:27.463Z,86.09
2023-01-28T09:02:32.499Z,86.09
2023-01-28T09:06:35.252Z,85.86
2023-01-28T09:10:38.472Z,85.56
2023-01-28T09:14:41.655Z,85.56
2023-01-28T09:18:45.651Z,85.39
2023-01-28T09:22:48.285Z,85.61
2023-01-28T09:26:51.241Z,85.92
2023-01-28T09:30:54.025Z,85.62
2023-01-28T09:34:58.125Z,85.51
2023-01-28T09:39:01.754Z,85.74
2023-01-28T09:43:27.561Z,85.45
2023-01-28T09:47:35.045Z,85.60
2023-01-28T09:51:43.286Z,85.84
2023-01-28T09:55:49.533Z,85.84
2023-01-28T09:59:52.448Z,84.66
2023-01-28T10:04:03.217Z,84.73
2023-01-28T10:08:26.538Z,84.41
2023-01-28T10:12:51.158Z,84.52
2023-01-28T10:17:01.383Z,84.61
2023-01-28T10:21:11.802Z,84.98
2023-01-28T10:25:20.220Z,84.89
2023-01-28T10:29:26.652Z,84.31
2023-01-28T10:33:34.413Z,84.66
2023-01-28T10:37:40.582Z,84.63
2023-01-28T10:41:56.757Z,84.48
2023-01-28T10:46:05.954Z,84.63
2023-01-28T10:50:18.512Z,84.64
2023-01-28T10:54:23.463Z,84.70
2023-01-28T10:58:30.057Z,85.08
2023-01-28T11:02:37.135Z,84.81
2023-01-28T11:06:40.840Z,84.32
2023-01-28T11:10:44.833Z,84.95
2023-01-28T11:14:53.218Z,85.06
2023-01-28T11:19:00.143Z,85.67
2023-01-28T11:23:03.369Z,85.96
2023-01-28T11:27:16.167Z,86.11
2023-01-28T11:31:23.439Z,86.01
2023-01-28T11:35:30.197Z,86.58
2023-01-28T11:39:33.112Z,86.54
2023-01-28T11:43:35.775Z,86.41
2023-01-28T11:47:54.859Z,85.71
2023-01-28T11:52:04.720Z,85.84
2023-01-28T11:56:24.269Z,85.45
2023-01-28T12:00:39.245Z,85.54
2023-01-28T12:05:01.152Z,85.49
2023-01-28T12:09:14.505Z,85.19
2023-01-28T12:13:32.951Z,85.39
2023-01-28T12:17:49.517Z,85.12
2023-01-28T12:22:13.431Z,84.79
2023-01-28T12:26:28.620Z,85.28
2023-01-28T12:30:44.180Z,85.30
2023-01-28T12:35:22.205Z,85.06
2023-01-28T12:39:43.955Z,84.94
2023-01-28T12:43:57.430Z,85.01
2023-01-28T12:48:08.001Z,85.26
2023-01-28T12:52:17.438Z,85.56
2023-01-28T12:56:24.707Z,85.58
2023-01-28T13:00:36.130Z,85.56
2023-01-28T13:04:43.401Z,85.42
2023-01-28T13:08:46.101Z,85.67
2023-01-28T13:12:50.987Z,85.97
2023-01-28T13:16:53.627Z,86.20
2023-01-28T13:20:56.365Z,85.91
2023-01-28T13:25:13.179Z,86.53
2023-01-28T13:29:28.804Z,86.79
2023-01-28T13:33:33.801Z,86.84
2023-01-28T13:37:40.622Z,87.25
2023-01-28T13:41:45.484Z,87.07
2023-01-28T13:46:01.427Z,87.19
2023-01-28T13:50:07.091Z,87.08
2023-01-28T13:54:18.272Z,86.94
2023-01-28T13:58:52.645Z,87.00
2023-01-28T14:03:36.437Z,86.59
2023-01-28T14:08:12.000Z,86.69
2023-01-28T14:12:37.117Z,86.76
2023-01-28T14:16:52.173Z,85.34
2023-01-28T14:21:02.454Z,84.86
2023-01-28T14:25:12.529Z,84.25
2023-01-28T14:29:28.297Z,84.07
2023-01-28T14:33:34.479Z,84.26
2023-01-28T14:37:39.454Z,83.83
2023-01-28T14:41:45.137Z,83.82
2023-01-28T14:46:05.037Z,83.63
2023-01-28T14:50:35.245Z,84.63
2023-01-28T14:54:51.511Z,83.84
2023-01-28T14:59:02.921Z,83.28
2023-01-28T15:03:24.913Z,83.00
2023-01-28T15:07:28.945Z,82.88
2023-01-28T15:11:33.259Z,82.85
2023-01-28T15:15:40.414Z,82.91
2023-01-28T15:19:42.913Z,82.66
2023-01-28T15:23:45.711Z,82.83
2023-01-28T15:27:51.630Z,82.40
2023-01-28T15:31:54.548Z,82.37
2023-01-28T15:36:00.832Z,81.82
2023-01-28T15:40:05.997Z,81.93
2023-01-28T15:44:18.578Z,87.71
2023-01-28T15:48:21.256Z,81.70
2023-01-28T15:52:34.170Z,81.37
2023-01-28T15:56:37.573Z,80.91
2023-01-28T16:00:41.675Z,80.91
2023-01-28T16:04:44.376Z,81.51
2023-01-28T16:08:55.435Z,81.45
2023-01-28T16:13:05.831Z,81.15
2023-01-28T16:17:17.215Z,81.24
2023-01-28T16:21:23.887Z,80.85
2023-01-28T16:25:33.696Z,80.44
2023-01-28T16:29:36.760Z,81.01
2023-01-28T16:33:40.773Z,81.20
2023-01-28T16:37:43.398Z,80.39
2023-01-28T16:41:48.937Z,80.82
2023-01-28T16:45:56.821Z,80.19
2023-01-28T16:50:00.913Z,80.94
2023-01-28T16:54:05.072Z,80.77
2023-01-28T16:58:10.020Z,80.50
2023-01-28T17:02:14.518Z,80.98
2023-01-28T17:06:20.896Z,81.02
2023-01-28T17:10:23.507Z,81.11
2023-01-28T17:14:27.421Z,80.69
2023-01-28T17:18:30.417Z,80.17
2023-01-28T17:22:34.456Z,80.48
2023-01-28T17:26:38.164Z,80.42
2023-01-28T17:30:42.008Z,80.34
2023-01-28T17:34:44.657Z,79.55
2023-01-28T17:38:49.198Z,79.26
2023-01-28T17:47:08.047Z,79.58
2023-01-28T17:51:10.567Z,79.28
2023-01-28T17:55:14.813Z,79.63
2023-01-28T17:59:17.809Z,79.17
2023-01-28T18:03:20.350Z,79.43
2023-01-28T18:07:22.999Z,79.36
2023-01-28T18:11:28.626Z,79.01
2023-01-28T18:15:31.468Z,79.40
2023-01-28T18:19:34.305Z,79.66
2023-01-28T18:23:36.795Z,79.67
2023-01-28T18:27:40.871Z,79.54
2023-01-28T18:31:43.449Z,79.67
2023-01-28T18:35:46.671Z,80.36
2023-01-28T18:39:49.202Z,80.14
2023-01-28T18:43:53.043Z,79.56
2023-01-28T18:47:55.616Z,79.37
2023-01-28T18:51:59.315Z,79.20
2023-01-28T18:56:03.072Z,79.30
2023-01-28T19:00:08.591Z,78.67
2023-01-28T19:04:11.619Z,78.42
2023-01-28T19:08:14.119Z,78.58
2023-01-28T19:12:16.671Z,78.05
2023-01-28T19:16:21.586Z,78.52
2023-01-28T19:20:24.457Z,78.83
2023-01-28T19:24:27.066Z,78.95
2023-01-28T19:28:32.613Z,78.68
2023-01-28T19:32:36.500Z,79.11
2023-01-28T19:36:39.401Z,79.40
2023-01-28T19:40:42.604Z,79.27
2023-01-28T19:44:45.213Z,78.99
2023-01-28T19:48:49.079Z,78.82
2023-01-28T19:52:51.606Z,78.44
2023-01-28T19:56:54.139Z,79.08
2023-01-28T20:01:04.055Z,79.22
2023-01-28T20:05:08.687Z,78.93
2023-01-28T20:09:16.538Z,79.43
2023-01-28T20:13:19.096Z,78.96
2023-01-28T20:17:21.709Z,79.17
2023-01-28T20:21:26.264Z,79.77
2023-01-28T20:25:28.787Z,79.88
2023-01-28T20:29:31.449Z,79.64
2023-01-28T20:33:34.731Z,79.38
2023-01-28T20:37:40.785Z,79.29
2023-01-28T20:41:43.591Z,79.50
2023-01-28T20:45:46.125Z,79.71
2023-01-28T20:49:48.728Z,79.52
2023-01-28T20:53:53.313Z,79.72
2023-01-28T20:57:56.044Z,79.30
2023-01-28T21:01:58.642Z,79.15
2023-01-28T21:06:01.711Z,79.17
2023-01-28T21:10:06.562Z,79.06
2023-01-28T21:14:09.090Z,78.13
2023-01-28T21:18:11.654Z,78.39
2023-01-28T21:22:14.181Z,79.15
2023-01-28T21:26:18.455Z,79.13
2023-01-28T21:30:21.236Z,79.04
2023-01-28T21:34:24.774Z,79.33
2023-01-28T21:38:27.311Z,79.53
2023-01-28T21:42:32.350Z,79.58
2023-01-28T21:46:35.077Z,80.01
2023-01-28T21:50:57.594Z,79.28
2023-01-28T21:55:00.151Z,79.56
2023-01-28T21:59:22.057Z,80.00
2023-01-28T22:03:24.891Z,79.59
2023-01-28T22:07:27.483Z,79.58
2023-01-28T22:11:30.013Z,79.86
2023-01-28T22:15:35.503Z,79.48
2023-01-28T22:19:38.466Z,79.48
2023-01-28T22:23:41.030Z,80.01
2023-01-28T22:27:43.589Z,79.76
2023-01-28T22:31:48.270Z,79.99
2023-01-28T22:35:50.867Z,80.07
2023-01-28T22:39:56.090Z,80.32
2023-01-28T22:44:01.497Z,79.89
2023-01-28T22:48:05.605Z,79.65
2023-01-28T22:52:08.127Z,79.29
2023-01-28T23:00:15.755Z,79.45
2023-01-28T23:04:19.865Z,79.29
2023-01-28T23:08:22.420Z,79.68
2023-01-28T23:12:25.033Z,78.91
2023-01-28T23:16:45.355Z,79.16
2023-01-28T23:21:15.366Z,78.51
2023-01-28T23:25:18.822Z,78.65
2023-01-28T23:29:23.745Z,78.67
2023-01-28T23:33:26.306Z,78.68
2023-01-28T23:37:30.159Z,78.29
2023-01-28T23:41:32.666Z,78.35
2023-01-28T23:45:35.198Z,78.38
2023-01-28T23:49:38.531Z,77.83
2023-01-28T23:53:42.386Z,77.45
2023-01-28T23:57:44.971Z,77.65
